Time;durP1;ratioP1;P1;durP2;ratioP2;P2;SDS_P1;SDS_P2;PMS_P1;PMS_P2;Temp;Humidity;BMP_temperature;BMP_pressure;BME280_temperature;BME280_humidity;BME280_pressure;Samples;Min_cycle;Max_cycle;Signal;HPM_P1;HPM_P2
2023/09/12 00:00:36;;;;;;;;;;;17.60;99.90;;;;;;5050963;28;19925;-64
2023/09/12 00:03:03;;;;;;;;;;;17.60;99.90;;;;;;5047650;28;21023;-63
2023/09/12 00:05:30;;;;;;;;;;;17.60;99.90;;;;;;5048540;28;19975;-63
2023/09/12 00:07:57;;;;;;;;;;;17.70;99.90;;;;;;5051838;28;19932;-63
2023/09/12 00:10:23;;;;;;;;;;;17.70;99.90;;;;;;5050528;28;20562;-64
2023/09/12 00:12:50;;;;;;;;;;;17.70;99.90;;;;;;5031956;28;19933;-64
2023/09/12 00:15:19;;;;;;;;;;;17.80;99.90;;;;;;5041230;28;19948;-62
2023/09/12 00:17:48;;;;;;;;;;;17.80;99.90;;;;;;5043463;28;19929;-63
2023/09/12 00:20:15;;;;;;;;;;;17.80;99.90;;;;;;5050173;28;19952;-63
2023/09/12 00:22:41;;;;;;;;;;;17.80;99.90;;;;;;5051228;28;20023;-63
2023/09/12 00:25:08;;;;;;;;;;;17.80;99.90;;;;;;5050947;28;19932;-63
2023/09/12 00:27:35;;;;;;;;;;;17.70;99.90;;;;;;5036648;28;19925;-63
2023/09/12 00:30:02;;;;;;;;;;;17.70;99.90;;;;;;5051385;28;19925;-63
2023/09/12 00:32:29;;;;;;;;;;;17.70;99.90;;;;;;5033679;28;20301;-63
2023/09/12 00:34:55;;;;;;;;;;;17.80;99.90;;;;;;5051613;28;19925;-63
2023/09/12 00:37:23;;;;;;;;;;;17.70;99.90;;;;;;5050517;28;20029;-62
2023/09/12 00:39:50;;;;;;;;;;;17.70;99.90;;;;;;5043142;28;20381;-63
2023/09/12 00:42:17;;;;;;;;;;;17.70;99.90;;;;;;5031630;28;20412;-63
2023/09/12 00:44:44;;;;;;;;;;;17.70;99.90;;;;;;5032930;28;19929;-63
2023/09/12 00:47:11;;;;;;;;;;;17.70;99.90;;;;;;5032884;28;19925;-62
2023/09/12 00:49:39;;;;;;;;;;;17.60;99.90;;;;;;5029782;28;19925;-63
2023/09/12 00:52:06;;;;;;;;;;;17.60;99.90;;;;;;5043865;28;19925;-62
2023/09/12 00:54:32;;;;;;;;;;;17.50;99.90;;;;;;5033393;28;19928;-63
2023/09/12 00:56:59;;;;;;;;;;;17.50;99.90;;;;;;5025297;28;19931;-63
2023/09/12 00:59:27;;;;;;;;;;;17.50;99.90;;;;;;5051028;28;20018;-63
2023/09/12 01:01:53;;;;;;;;;;;17.50;99.90;;;;;;5035617;28;19924;-63
2023/09/12 01:04:20;;;;;;;;;;;17.50;99.90;;;;;;5055226;28;19931;-63
2023/09/12 01:07:00;;;;;;;;;;;17.30;99.90;;;;;;5046918;28;19931;-63
2023/09/12 01:09:27;;;;;;;;;;;17.40;99.90;;;;;;5048373;28;19987;-63
2023/09/12 01:11:54;;;;;;;;;;;17.40;99.90;;;;;;5042101;28;19929;-63
2023/09/12 01:14:21;;;;;;;;;;;17.40;99.90;;;;;;5036304;28;19925;-63
2023/09/12 01:16:48;;;;;;;;;;;17.30;99.90;;;;;;5035414;28;19971;-63
2023/09/12 01:19:15;;;;;;;;;;;17.30;99.90;;;;;;5036026;28;20266;-63
2023/09/12 01:22:01;;;;;;;;;;;17.30;99.90;;;;;;5032993;28;19925;-64
2023/09/12 01:24:45;;;;;;;;;;;17.30;99.90;;;;;;5055022;28;19964;-63
2023/09/12 01:27:30;;;;;;;;;;;17.30;99.90;;;;;;5048000;28;19932;-63
2023/09/12 01:29:59;;;;;;;;;;;17.10;99.90;;;;;;5051406;28;20023;-63
2023/09/12 01:32:27;;;;;;;;;;;16.90;99.90;;;;;;5032076;28;19931;-63
2023/09/12 01:34:54;;;;;;;;;;;16.80;99.90;;;;;;5036174;28;20019;-63
2023/09/12 01:37:20;;;;;;;;;;;16.70;99.90;;;;;;5036685;28;19932;-63
2023/09/12 01:39:47;;;;;;;;;;;16.70;99.90;;;;;;5033027;28;20381;-64
2023/09/12 01:42:18;;;;;;;;;;;16.70;99.90;;;;;;5041759;28;19936;-63
2023/09/12 01:44:45;;;;;;;;;;;16.70;99.90;;;;;;5035571;28;19935;-64
2023/09/12 01:47:13;;;;;;;;;;;16.70;99.90;;;;;;5036111;28;20304;-63
2023/09/12 01:49:42;;;;;;;;;;;16.70;99.90;;;;;;5048684;28;19925;-63
2023/09/12 01:52:09;;;;;;;;;;;16.80;99.90;;;;;;5034958;28;19950;-63
2023/09/12 01:54:36;;;;;;;;;;;16.80;99.90;;;;;;5036164;28;20016;-63
2023/09/12 01:57:04;;;;;;;;;;;16.80;99.90;;;;;;5053770;28;19935;-63
2023/09/12 01:59:31;;;;;;;;;;;16.80;99.90;;;;;;5035869;28;20031;-63
2023/09/12 02:01:58;;;;;;;;;;;16.80;99.90;;;;;;5033995;28;19929;-63
2023/09/12 02:04:24;;;;;;;;;;;16.90;99.90;;;;;;5036334;28;19928;-63
2023/09/12 02:06:51;;;;;;;;;;;16.90;99.90;;;;;;5053696;28;19925;-63
2023/09/12 02:09:18;;;;;;;;;;;16.90;99.90;;;;;;5052030;28;19931;-63
2023/09/12 02:11:46;;;;;;;;;;;16.90;99.90;;;;;;5035637;28;19939;-63
2023/09/12 02:14:12;;;;;;;;;;;16.90;99.90;;;;;;5035323;28;19924;-63
2023/09/12 02:16:39;;;;;;;;;;;16.90;99.90;;;;;;5035751;28;19925;-63
2023/09/12 02:19:10;;;;;;;;;;;16.90;99.90;;;;;;5043578;28;19932;-64
2023/09/12 02:21:39;;;;;;;;;;;16.90;99.90;;;;;;5031798;28;20023;-63
2023/09/12 02:24:06;;;;;;;;;;;16.90;99.90;;;;;;5053234;28;19935;-64
2023/09/12 02:26:36;;;;;;;;;;;16.90;99.90;;;;;;5035498;28;19925;-63
2023/09/12 02:29:05;;;;;;;;;;;16.90;99.90;;;;;;5033168;28;19937;-63
2023/09/12 02:31:32;;;;;;;;;;;16.90;99.90;;;;;;5042583;28;20023;-63
2023/09/12 02:33:59;;;;;;;;;;;16.80;99.90;;;;;;5053524;28;20019;-63
2023/09/12 02:36:26;;;;;;;;;;;16.80;99.90;;;;;;5035204;28;19925;-63
2023/09/12 02:38:52;;;;;;;;;;;16.80;99.90;;;;;;5053269;28;20349;-63
2023/09/12 02:41:19;;;;;;;;;;;16.70;99.90;;;;;;5034161;28;19925;-63
2023/09/12 02:43:46;;;;;;;;;;;16.80;99.90;;;;;;5030632;28;20009;-64
2023/09/12 02:46:13;;;;;;;;;;;16.80;99.90;;;;;;5035140;28;19925;-62
2023/09/12 02:48:40;;;;;;;;;;;16.70;99.90;;;;;;5039362;28;19932;-63
2023/09/12 02:51:08;;;;;;;;;;;16.70;99.90;;;;;;5033640;28;19924;-63
2023/09/12 02:53:34;;;;;;;;;;;16.60;99.90;;;;;;5035172;28;19928;-64
2023/09/12 02:56:01;;;;;;;;;;;16.70;99.90;;;;;;5032459;28;19925;-63
2023/09/12 02:58:28;;;;;;;;;;;16.60;99.90;;;;;;5034974;28;19939;-63
2023/09/12 03:00:55;;;;;;;;;;;16.50;99.90;;;;;;5031490;28;19929;-63
2023/09/12 03:03:22;;;;;;;;;;;16.40;99.90;;;;;;5034973;28;19925;-63
2023/09/12 03:05:56;;;;;;;;;;;16.40;99.90;;;;;;5034036;28;20393;-64
2023/09/12 03:08:23;;;;;;;;;;;16.40;99.90;;;;;;5034985;28;19925;-63
2023/09/12 03:10:56;;;;;;;;;;;16.30;99.90;;;;;;5044046;28;19935;-63
2023/09/12 03:13:24;;;;;;;;;;;16.30;99.90;;;;;;5033746;28;19951;-63
2023/09/12 03:15:51;;;;;;;;;;;16.30;99.90;;;;;;5034532;28;19931;-63
2023/09/12 03:18:18;;;;;;;;;;;16.40;99.90;;;;;;5035055;28;19949;-63
2023/09/12 03:20:45;;;;;;;;;;;16.30;99.90;;;;;;5034099;28;19979;-63
2023/09/12 03:23:12;;;;;;;;;;;16.30;99.90;;;;;;5031694;28;20297;-64
2023/09/12 03:25:39;;;;;;;;;;;16.20;99.90;;;;;;5052657;28;19985;-63
2023/09/12 03:28:06;;;;;;;;;;;16.20;99.90;;;;;;5052152;28;20297;-63
2023/09/12 03:30:34;;;;;;;;;;;16.20;99.90;;;;;;5048945;28;20801;-63
2023/09/12 03:33:00;;;;;;;;;;;16.20;99.90;;;;;;5045174;28;19931;-63
2023/09/12 03:35:34;;;;;;;;;;;16.10;99.90;;;;;;5033632;28;19932;-63
2023/09/12 03:38:01;;;;;;;;;;;16.10;99.90;;;;;;5033746;28;19932;-63
2023/09/12 03:40:29;;;;;;;;;;;16.10;99.90;;;;;;5033651;28;19979;-63
2023/09/12 03:42:56;;;;;;;;;;;16.10;99.90;;;;;;5032451;28;19925;-63
2023/09/12 03:45:23;;;;;;;;;;;16.00;99.90;;;;;;5034405;28;19994;-63
2023/09/12 03:47:51;;;;;;;;;;;16.10;99.90;;;;;;5033932;28;19932;-63
2023/09/12 03:50:18;;;;;;;;;;;16.00;99.90;;;;;;5033851;28;19925;-63
2023/09/12 03:52:44;;;;;;;;;;;16.00;99.90;;;;;;5032692;28;19925;-63
2023/09/12 03:55:11;;;;;;;;;;;16.00;99.90;;;;;;5031339;28;19929;-63
2023/09/12 03:57:38;;;;;;;;;;;15.90;99.90;;;;;;5046687;28;19925;-63
2023/09/12 04:00:05;;;;;;;;;;;15.90;99.90;;;;;;5032688;28;19931;-63
2023/09/12 04:02:39;;;;;;;;;;;15.90;99.90;;;;;;5052085;28;19971;-63
2023/09/12 04:05:06;;;;;;;;;;;15.90;99.90;;;;;;5031152;28;20382;-63
2023/09/12 04:07:33;;;;;;;;;;;15.90;99.90;;;;;;5033949;28;20391;-63
2023/09/12 04:10:00;;;;;;;;;;;15.90;99.90;;;;;;5033149;28;20404;-63
2023/09/12 04:12:27;;;;;;;;;;;15.90;99.90;;;;;;5033787;28;19929;-64
2023/09/12 04:14:54;;;;;;;;;;;16.00;99.90;;;;;;5047688;28;19929;-63
2023/09/12 04:17:21;;;;;;;;;;;15.90;99.90;;;;;;5033884;28;19932;-62
2023/09/12 04:19:48;;;;;;;;;;;15.90;99.90;;;;;;5051250;28;20393;-63
2023/09/12 04:22:15;;;;;;;;;;;16.00;99.90;;;;;;5033754;28;19924;-64
2023/09/12 04:24:42;;;;;;;;;;;15.90;99.90;;;;;;5045088;28;20333;-63
2023/09/12 04:27:09;;;;;;;;;;;15.90;99.90;;;;;;5033612;28;20012;-63
2023/09/12 04:29:36;;;;;;;;;;;15.80;99.90;;;;;;5032992;28;19952;-62
2023/09/12 04:32:05;;;;;;;;;;;15.90;99.90;;;;;;5029778;28;20007;-63
2023/09/12 04:34:33;;;;;;;;;;;15.90;99.90;;;;;;5033485;28;20030;-64
2023/09/12 04:37:02;;;;;;;;;;;15.90;99.90;;;;;;5036210;28;20019;-63
2023/09/12 04:39:29;;;;;;;;;;;15.90;99.90;;;;;;5036570;28;19979;-63
2023/09/12 04:41:56;;;;;;;;;;;15.90;99.90;;;;;;5032680;28;20415;-64
2023/09/12 04:44:23;;;;;;;;;;;15.80;99.90;;;;;;5037411;28;19924;-63
2023/09/12 04:46:50;;;;;;;;;;;15.70;99.90;;;;;;5036714;28;19983;-63
2023/09/12 04:49:17;;;;;;;;;;;15.60;99.90;;;;;;5037172;28;19974;-63
2023/09/12 04:51:44;;;;;;;;;;;15.50;99.90;;;;;;5032973;28;19929;-63
2023/09/12 04:54:11;;;;;;;;;;;15.40;99.90;;;;;;5027211;28;19988;-62
2023/09/12 04:56:38;;;;;;;;;;;15.40;99.90;;;;;;5026813;28;20607;-63
2023/09/12 04:59:06;;;;;;;;;;;15.60;99.90;;;;;;5028028;28;20011;-63
2023/09/12 05:01:33;;;;;;;;;;;15.50;99.90;;;;;;5047544;28;20361;-64
2023/09/12 05:04:00;;;;;;;;;;;15.50;99.90;;;;;;5036796;28;19960;-63
2023/09/12 05:06:27;;;;;;;;;;;15.50;99.90;;;;;;5036493;28;19975;-63
2023/09/12 05:08:54;;;;;;;;;;;15.60;99.90;;;;;;5055198;28;20292;-64
2023/09/12 05:11:24;;;;;;;;;;;15.60;99.90;;;;;;5034676;28;19925;-62
2023/09/12 05:13:51;;;;;;;;;;;15.70;99.90;;;;;;5036420;28;19925;-63
2023/09/12 05:16:19;;;;;;;;;;;15.60;99.90;;;;;;5034301;28;19933;-63
2023/09/12 05:18:46;;;;;;;;;;;15.60;99.90;;;;;;5036368;28;20023;-63
2023/09/12 05:21:13;;;;;;;;;;;15.60;99.90;;;;;;5035270;28;19933;-63
2023/09/12 05:23:40;;;;;;;;;;;15.70;99.90;;;;;;5054183;28;19931;-62
2023/09/12 05:26:07;;;;;;;;;;;15.60;99.90;;;;;;5036026;28;20347;-63
2023/09/12 05:28:33;;;;;;;;;;;15.70;99.90;;;;;;5035073;28;19951;-63
2023/09/12 05:31:00;;;;;;;;;;;15.70;99.90;;;;;;5054148;28;20357;-63
2023/09/12 05:33:29;;;;;;;;;;;15.80;99.90;;;;;;5035867;28;19925;-61
2023/09/12 05:35:59;;;;;;;;;;;15.80;99.90;;;;;;5035926;28;20343;-62
2023/09/12 05:38:27;;;;;;;;;;;15.90;99.90;;;;;;5034065;28;19925;-63
2023/09/12 05:40:54;;;;;;;;;;;15.90;99.90;;;;;;5034110;28;19937;-62
2023/09/12 05:43:21;;;;;;;;;;;16.10;99.90;;;;;;5039316;28;22388;-63
2023/09/12 05:45:47;;;;;;;;;;;16.10;99.90;;;;;;5042170;28;19925;-63
2023/09/12 05:48:14;;;;;;;;;;;16.10;99.90;;;;;;5047768;28;19925;-63
2023/09/12 05:50:41;;;;;;;;;;;16.20;99.90;;;;;;5035167;28;20488;-63
2023/09/12 05:53:08;;;;;;;;;;;16.20;99.90;;;;;;5052065;28;20114;-62
2023/09/12 05:55:35;;;;;;;;;;;16.20;99.90;;;;;;5032381;28;20423;-63
2023/09/12 05:58:05;;;;;;;;;;;16.30;99.90;;;;;;5035803;28;19925;-63
2023/09/12 06:00:34;;;;;;;;;;;16.30;99.90;;;;;;5033762;28;19924;-63
2023/09/12 06:03:01;;;;;;;;;;;16.30;99.90;;;;;;5030665;28;20342;-63
2023/09/12 06:05:27;;;;;;;;;;;16.30;99.90;;;;;;5052050;28;19960;-63
2023/09/12 06:07:54;;;;;;;;;;;16.20;99.90;;;;;;5051963;28;20409;-63
2023/09/12 06:10:21;;;;;;;;;;;16.10;99.90;;;;;;5048384;28;19936;-63
2023/09/12 06:12:49;;;;;;;;;;;16.10;99.90;;;;;;5047237;28;20381;-63
2023/09/12 06:15:16;;;;;;;;;;;16.10;99.90;;;;;;5052763;28;19925;-63
2023/09/12 06:17:43;;;;;;;;;;;16.20;99.90;;;;;;5046872;28;19925;-63
2023/09/12 06:20:10;;;;;;;;;;;16.30;99.90;;;;;;5029672;28;19924;-63
2023/09/12 06:22:36;;;;;;;;;;;16.30;99.90;;;;;;5050236;28;19932;-63
2023/09/12 06:25:03;;;;;;;;;;;16.40;99.90;;;;;;5043353;28;20012;-63
2023/09/12 06:27:31;;;;;;;;;;;16.50;99.90;;;;;;5052209;28;19931;-63
2023/09/12 06:29:58;;;;;;;;;;;16.70;99.90;;;;;;5051876;28;19925;-63
2023/09/12 06:32:25;;;;;;;;;;;16.90;99.90;;;;;;5049306;28;19925;-62
2023/09/12 06:34:51;;;;;;;;;;;17.00;99.90;;;;;;5047632;28;20015;-63
2023/09/12 06:37:18;;;;;;;;;;;17.20;99.90;;;;;;5052580;28;20301;-62
2023/09/12 06:39:48;;;;;;;;;;;17.40;99.90;;;;;;5052442;28;20370;-63
2023/09/12 06:42:15;;;;;;;;;;;17.60;99.90;;;;;;5036840;28;20444;-62
2023/09/12 06:44:42;;;;;;;;;;;17.80;99.90;;;;;;5034920;28;19925;-62
2023/09/12 06:47:10;;;;;;;;;;;17.90;99.90;;;;;;5046198;28;19940;-62
2023/09/12 06:49:37;;;;;;;;;;;18.10;99.90;;;;;;5033999;28;19924;-63
2023/09/12 06:52:04;;;;;;;;;;;18.20;99.90;;;;;;5052532;28;19962;-63
2023/09/12 06:54:32;;;;;;;;;;;18.20;99.90;;;;;;5052117;28;19925;-63
2023/09/12 06:56:59;;;;;;;;;;;18.30;99.90;;;;;;5049776;28;19925;-63
2023/09/12 06:59:26;;;;;;;;;;;18.50;99.90;;;;;;5042203;28;19929;-63
2023/09/12 07:01:52;;;;;;;;;;;18.50;99.90;;;;;;5047912;28;19932;-63
2023/09/12 07:04:19;;;;;;;;;;;18.70;99.90;;;;;;5050343;28;19974;-63
2023/09/12 07:06:46;;;;;;;;;;;18.80;99.90;;;;;;5052160;28;19924;-63
2023/09/12 07:09:14;;;;;;;;;;;18.90;99.90;;;;;;5050365;28;19974;-63
2023/09/12 07:11:41;;;;;;;;;;;19.00;99.90;;;;;;5049988;28;20015;-63
2023/09/12 07:14:11;;;;;;;;;;;19.10;99.90;;;;;;5048586;28;20016;-63
2023/09/12 07:16:38;;;;;;;;;;;19.10;99.90;;;;;;5044131;28;19924;-63
2023/09/12 07:19:04;;;;;;;;;;;19.20;99.90;;;;;;5031850;28;20381;-62
2023/09/12 07:21:31;;;;;;;;;;;19.30;99.90;;;;;;5051509;28;19940;-63
2023/09/12 07:23:58;;;;;;;;;;;19.50;99.90;;;;;;5051389;28;19924;-64
2023/09/12 07:26:25;;;;;;;;;;;19.40;99.90;;;;;;5046781;28;19929;-63
2023/09/12 07:28:54;;;;;;;;;;;19.60;99.90;;;;;;5046069;28;19978;-63
2023/09/12 07:31:21;;;;;;;;;;;19.60;99.90;;;;;;5043239;28;19925;-63
2023/09/12 07:33:47;;;;;;;;;;;19.70;99.90;;;;;;5051836;28;19929;-62
2023/09/12 07:36:14;;;;;;;;;;;19.70;99.90;;;;;;5050576;28;19925;-63
2023/09/12 07:38:42;;;;;;;;;;;19.90;99.90;;;;;;5051592;28;20443;-63
2023/09/12 07:41:09;;;;;;;;;;;19.90;99.90;;;;;;5042988;28;19925;-63
2023/09/12 07:43:36;;;;;;;;;;;20.00;99.90;;;;;;5051526;28;19932;-63
2023/09/12 07:46:03;;;;;;;;;;;20.20;99.90;;;;;;5051516;28;19936;-63
2023/09/12 07:48:30;;;;;;;;;;;20.30;99.90;;;;;;5044845;28;20050;-63
2023/09/12 07:50:57;;;;;;;;;;;20.50;99.90;;;;;;5051055;28;19928;-63
2023/09/12 07:53:23;;;;;;;;;;;20.60;99.90;;;;;;5050189;28;20308;-63
2023/09/12 07:55:50;;;;;;;;;;;20.80;99.90;;;;;;5046952;28;19925;-63
2023/09/12 07:58:18;;;;;;;;;;;20.80;99.90;;;;;;5040102;28;20139;-63
2023/09/12 08:00:45;;;;;;;;;;;20.90;99.90;;;;;;5049381;28;19929;-63
2023/09/12 08:03:12;;;;;;;;;;;20.90;99.90;;;;;;5050843;28;19924;-63
2023/09/12 08:05:39;;;;;;;;;;;21.00;99.90;;;;;;5039034;28;20020;-62
2023/09/12 08:08:06;;;;;;;;;;;21.10;99.90;;;;;;5046855;28;19951;-64
2023/09/12 08:10:33;;;;;;;;;;;21.10;99.90;;;;;;5049883;28;19937;-63
2023/09/12 08:12:59;;;;;;;;;;;21.10;99.90;;;;;;5051441;28;20400;-63
2023/09/12 08:15:26;;;;;;;;;;;21.20;99.90;;;;;;5042587;28;20015;-63
2023/09/12 08:17:53;;;;;;;;;;;21.20;99.90;;;;;;5051337;28;19924;-62
2023/09/12 08:20:20;;;;;;;;;;;21.30;99.90;;;;;;5049834;28;19924;-64
2023/09/12 08:22:48;;;;;;;;;;;21.50;99.90;;;;;;5051417;28;19931;-63
2023/09/12 08:25:15;;;;;;;;;;;21.70;99.90;;;;;;5042331;28;19930;-63
2023/09/12 08:27:43;;;;;;;;;;;21.80;99.90;;;;;;5039891;28;20301;-63
2023/09/12 08:30:10;;;;;;;;;;;21.80;99.90;;;;;;5049707;28;19925;-63
2023/09/12 08:32:39;;;;;;;;;;;21.90;99.90;;;;;;5050007;28;19979;-63
2023/09/12 08:35:06;;;;;;;;;;;21.80;99.90;;;;;;5051291;28;19932;-63
2023/09/12 08:37:33;;;;;;;;;;;22.00;99.90;;;;;;5044842;28;19932;-63
2023/09/12 08:40:00;;;;;;;;;;;22.00;99.90;;;;;;5050666;28;19929;-64
2023/09/12 08:42:28;;;;;;;;;;;22.10;99.90;;;;;;5050659;28;19954;-63
2023/09/12 08:44:55;;;;;;;;;;;22.40;99.90;;;;;;5043791;28;20324;-63
2023/09/12 08:47:22;;;;;;;;;;;22.60;99.90;;;;;;5047881;28;20011;-63
2023/09/12 08:49:50;;;;;;;;;;;22.80;99.90;;;;;;5032402;28;19929;-63
2023/09/12 08:52:16;;;;;;;;;;;22.90;99.90;;;;;;5050792;28;19929;-64
2023/09/12 08:54:43;;;;;;;;;;;22.90;99.90;;;;;;5046578;28;19925;-63
2023/09/12 08:57:10;;;;;;;;;;;23.00;99.90;;;;;;5050934;28;20016;-63
2023/09/12 08:59:38;;;;;;;;;;;23.00;99.90;;;;;;5049991;28;19925;-64
2023/09/12 09:02:07;;;;;;;;;;;22.90;99.90;;;;;;5050919;28;19924;-64
2023/09/12 09:04:34;;;;;;;;;;;22.80;99.90;;;;;;5043354;28;19979;-64
2023/09/12 09:07:03;;;;;;;;;;;22.80;99.90;;;;;;5051330;28;20002;-64
2023/09/12 09:09:30;;;;;;;;;;;22.90;99.90;;;;;;5049923;28;19947;-64
2023/09/12 09:11:57;;;;;;;;;;;23.00;99.90;;;;;;5050972;28;19932;-64
2023/09/12 09:14:23;;;;;;;;;;;23.10;99.90;;;;;;5048614;28;20297;-64
2023/09/12 09:16:50;;;;;;;;;;;23.20;99.90;;;;;;5050810;28;19925;-64
2023/09/12 09:19:19;;;;;;;;;;;23.30;99.90;;;;;;5050205;28;19925;-64
2023/09/12 09:21:46;;;;;;;;;;;23.40;99.90;;;;;;5050224;28;19935;-64
2023/09/12 09:24:17;;;;;;;;;;;23.50;99.90;;;;;;5049721;28;19924;-64
2023/09/12 09:26:51;;;;;;;;;;;23.80;99.90;;;;;;5053957;28;19978;-64
2023/09/12 09:29:18;;;;;;;;;;;23.90;99.90;;;;;;5052048;28;19925;-64
2023/09/12 09:31:46;;;;;;;;;;;24.00;99.90;;;;;;5053370;28;20308;-64
2023/09/12 09:34:14;;;;;;;;;;;24.10;99.90;;;;;;5030868;28;20024;-64
2023/09/12 09:36:43;;;;;;;;;;;24.20;99.90;;;;;;5053177;28;19972;-64
2023/09/12 09:39:12;;;;;;;;;;;24.30;99.90;;;;;;5052924;28;19925;-64
2023/09/12 09:41:39;;;;;;;;;;;24.30;99.90;;;;;;5035764;28;19932;-64
2023/09/12 09:44:07;;;;;;;;;;;24.30;99.90;;;;;;5048640;28;19932;-64
2023/09/12 09:46:34;;;;;;;;;;;24.30;99.90;;;;;;5051758;28;19928;-62
2023/09/12 09:49:01;;;;;;;;;;;24.40;99.90;;;;;;5053447;28;20278;-64
2023/09/12 09:51:29;;;;;;;;;;;24.50;99.90;;;;;;5053893;28;20372;-64
2023/09/12 09:53:58;;;;;;;;;;;24.60;99.90;;;;;;5048486;28;19924;-64
2023/09/12 09:56:28;;;;;;;;;;;24.70;99.90;;;;;;5053583;28;19979;-64
2023/09/12 09:58:55;;;;;;;;;;;24.90;99.90;;;;;;5053055;28;19929;-62
2023/09/12 10:01:31;;;;;;;;;;;25.00;99.90;;;;;;5035492;28;19931;-62
2023/09/12 10:04:02;;;;;;;;;;;25.00;99.90;;;;;;5049176;28;19929;-64
2023/09/12 10:06:30;;;;;;;;;;;25.10;99.90;;;;;;5046326;28;19924;-64
2023/09/12 10:08:58;;;;;;;;;;;25.30;99.90;;;;;;5053316;28;19924;-64
2023/09/12 10:11:27;;;;;;;;;;;25.40;99.90;;;;;;5053218;28;20297;-64
2023/09/12 10:13:55;;;;;;;;;;;25.40;99.90;;;;;;5046174;28;19924;-64
2023/09/12 10:16:27;;;;;;;;;;;25.30;99.90;;;;;;5053409;28;20426;-64
2023/09/12 10:18:59;;;;;;;;;;;25.30;99.90;;;;;;5052067;28;19971;-64
2023/09/12 10:21:31;;;;;;;;;;;25.40;99.90;;;;;;5050351;28;19932;-64
2023/09/12 10:23:58;;;;;;;;;;;25.50;99.90;;;;;;5038263;28;19925;-64
2023/09/12 10:26:25;;;;;;;;;;;25.70;99.90;;;;;;5053145;28;20016;-64
2023/09/12 10:28:53;;;;;;;;;;;25.70;99.90;;;;;;5052535;28;19925;-62
2023/09/12 10:31:19;;;;;;;;;;;25.90;99.90;;;;;;5052829;28;19928;-62
2023/09/12 10:33:46;;;;;;;;;;;26.10;99.90;;;;;;5044611;28;19932;-62
2023/09/12 10:36:14;;;;;;;;;;;26.30;99.90;;;;;;5052927;28;19925;-62
2023/09/12 10:38:43;;;;;;;;;;;26.40;99.90;;;;;;5052279;28;19928;-62
2023/09/12 10:41:16;;;;;;;;;;;26.40;99.90;;;;;;5047113;28;19925;-61
2023/09/12 10:43:49;;;;;;;;;;;26.40;99.90;;;;;;5043028;28;20389;-62
2023/09/12 10:46:16;;;;;;;;;;;26.30;99.90;;;;;;5047674;28;20301;-62
2023/09/12 10:48:43;;;;;;;;;;;26.30;99.90;;;;;;5049945;28;19955;-62
2023/09/12 10:51:12;;;;;;;;;;;26.20;99.90;;;;;;5051350;28;19987;-62
2023/09/12 10:53:45;;;;;;;;;;;26.10;99.90;;;;;;5052625;28;19935;-62
2023/09/12 10:56:12;;;;;;;;;;;26.20;99.90;;;;;;5045467;28;20016;-62
2023/09/12 10:58:58;;;;;;;;;;;26.10;99.90;;;;;;5045046;28;19935;-61
2023/09/12 11:01:25;;;;;;;;;;;26.20;99.90;;;;;;5052126;28;19931;-62
2023/09/12 11:03:52;;;;;;;;;;;26.30;99.90;;;;;;5052278;28;19932;-62
2023/09/12 11:06:20;;;;;;;;;;;26.30;99.90;;;;;;5050381;28;19929;-62
2023/09/12 11:09:06;;;;;;;;;;;26.50;99.90;;;;;;5052032;28;19968;-62
2023/09/12 11:11:33;;;;;;;;;;;26.70;99.90;;;;;;5051530;28;19925;-62
2023/09/12 11:14:03;;;;;;;;;;;26.80;99.90;;;;;;5050141;28;20349;-62
2023/09/12 11:16:30;;;;;;;;;;;26.80;99.90;;;;;;5050863;28;19929;-62
2023/09/12 11:19:33;;;;;;;;;;;26.70;99.90;;;;;;5051883;28;19925;-62
2023/09/12 11:22:00;;;;;;;;;;;26.60;99.90;;;;;;4970629;28;19930;-62
2023/09/12 11:24:26;;;;;;;;;;;26.70;99.90;;;;;;5036180;28;20456;-62
2023/09/12 11:26:54;;;;;;;;;;;26.70;99.90;;;;;;5043899;28;19925;-62
2023/09/12 11:29:22;;;;;;;;;;;26.70;99.90;;;;;;5046577;28;19925;-62
2023/09/12 11:31:54;;;;;;;;;;;26.70;99.90;;;;;;5050664;28;19928;-62
2023/09/12 11:34:20;;;;;;;;;;;26.70;99.90;;;;;;5051751;28;19929;-62
2023/09/12 11:36:47;;;;;;;;;;;26.70;99.90;;;;;;5043247;28;19926;-62
2023/09/12 11:39:27;;;;;;;;;;;26.80;99.90;;;;;;5032800;28;20034;-62
2023/09/12 11:41:55;;;;;;;;;;;26.80;99.90;;;;;;5051409;28;19968;-62
2023/09/12 11:44:22;;;;;;;;;;;27.00;99.90;;;;;;5051273;28;20397;-62
2023/09/12 11:46:50;;;;;;;;;;;27.30;99.90;;;;;;5048454;28;19925;-62
2023/09/12 11:49:17;;;;;;;;;;;27.40;99.90;;;;;;5045383;28;20396;-62
2023/09/12 11:51:47;;;;;;;;;;;27.60;99.90;;;;;;5033223;28;19933;-62
2023/09/12 11:54:15;;;;;;;;;;;27.50;99.90;;;;;;5051657;28;19925;-62
2023/09/12 11:56:42;;;;;;;;;;;27.70;99.90;;;;;;5042237;28;19932;-61
2023/09/12 11:59:08;;;;;;;;;;;27.70;99.90;;;;;;5051084;28;20427;-62
2023/09/12 12:01:38;;;;;;;;;;;27.70;99.90;;;;;;5050562;28;19970;-62
2023/09/12 12:04:06;;;;;;;;;;;27.60;99.90;;;;;;5050075;28;19979;-62
2023/09/12 12:06:35;;;;;;;;;;;27.90;99.90;;;;;;5042939;28;20012;-62
2023/09/12 12:09:04;;;;;;;;;;;28.00;99.90;;;;;;5051038;28;20305;-62
2023/09/12 12:11:31;;;;;;;;;;;28.10;99.90;;;;;;5050752;28;20385;-62
2023/09/12 12:14:08;;;;;;;;;;;28.30;99.90;;;;;;5051196;28;19932;-62
2023/09/12 12:16:34;;;;;;;;;;;28.40;99.90;;;;;;5041143;28;19925;-62
2023/09/12 12:19:01;;;;;;;;;;;28.30;99.90;;;;;;5051067;28;19928;-62
2023/09/12 12:21:28;;;;;;;;;;;27.90;99.90;;;;;;5050835;28;20372;-62
2023/09/12 12:24:02;;;;;;;;;;;27.60;99.90;;;;;;5049226;28;19925;-62
2023/09/12 12:26:33;;;;;;;;;;;27.40;99.90;;;;;;5049891;28;19924;-62
2023/09/12 12:29:01;;;;;;;;;;;27.10;99.90;;;;;;5051289;28;20024;-62
2023/09/12 12:31:27;;;;;;;;;;;26.90;99.90;;;;;;5046708;28;19925;-62
2023/09/12 12:33:59;;;;;;;;;;;26.80;99.90;;;;;;5051102;28;19924;-62
2023/09/12 12:36:46;;;;;;;;;;;26.90;99.90;;;;;;5049969;28;19929;-62
2023/09/12 12:39:23;;;;;;;;;;;27.10;99.90;;;;;;5051109;28;19931;-62
2023/09/12 12:41:54;;;;;;;;;;;27.40;99.90;;;;;;5039202;28;20300;-62
2023/09/12 12:44:21;;;;;;;;;;;27.70;99.90;;;;;;5051273;28;19951;-62
2023/09/12 12:46:52;;;;;;;;;;;28.20;99.90;;;;;;5051098;28;20012;-62
2023/09/12 12:49:19;;;;;;;;;;;28.70;99.90;;;;;;5050976;28;19924;-62
2023/09/12 12:51:46;;;;;;;;;;;29.10;99.90;;;;;;5042999;28;19957;-62
2023/09/12 12:54:13;;;;;;;;;;;28.90;99.90;;;;;;5046377;28;19936;-62
2023/09/12 12:56:42;;;;;;;;;;;29.00;99.90;;;;;;5051279;28;19936;-62
2023/09/12 12:59:10;;;;;;;;;;;28.80;99.90;;;;;;5053685;28;19948;-62
2023/09/12 13:01:38;;;;;;;;;;;28.30;99.90;;;;;;5036195;28;19931;-62
2023/09/12 13:04:05;;;;;;;;;;;28.20;99.90;;;;;;5050438;28;20419;-62
2023/09/12 13:06:35;;;;;;;;;;;28.20;99.90;;;;;;5052694;28;19929;-62
2023/09/12 13:09:05;;;;;;;;;;;28.30;99.90;;;;;;5054255;28;19960;-62
2023/09/12 13:11:34;;;;;;;;;;;28.40;99.90;;;;;;5054114;28;19968;-62
2023/09/12 13:14:02;;;;;;;;;;;28.40;99.90;;;;;;5054203;28;19925;-62
2023/09/12 13:16:29;;;;;;;;;;;28.50;99.90;;;;;;5036021;28;19925;-62
2023/09/12 13:18:56;;;;;;;;;;;28.50;99.90;;;;;;5053279;28;19925;-62
2023/09/12 13:21:23;;;;;;;;;;;28.60;99.90;;;;;;5054283;28;20385;-62
2023/09/12 13:23:50;;;;;;;;;;;28.40;99.90;;;;;;5054265;28;19961;-62
2023/09/12 13:26:16;;;;;;;;;;;28.10;99.90;;;;;;5049046;28;19924;-62
2023/09/12 13:28:43;;;;;;;;;;;27.90;99.90;;;;;;5054195;28;19936;-62
2023/09/12 13:31:10;;;;;;;;;;;27.70;99.90;;;;;;5035999;28;19931;-62
2023/09/12 13:33:36;;;;;;;;;;;27.70;99.90;;;;;;5053527;28;19925;-62
2023/09/12 13:36:03;;;;;;;;;;;27.70;99.90;;;;;;5054139;28;19924;-62
2023/09/12 13:38:30;;;;;;;;;;;27.70;99.90;;;;;;5054090;28;19990;-62
2023/09/12 13:40:57;;;;;;;;;;;27.80;99.90;;;;;;5053550;28;19925;-62
2023/09/12 13:43:23;;;;;;;;;;;27.80;99.90;;;;;;5051691;28;19925;-62
2023/09/12 13:45:50;;;;;;;;;;;27.90;99.90;;;;;;5046750;28;19954;-62
2023/09/12 13:48:18;;;;;;;;;;;27.80;99.90;;;;;;5053568;28;19925;-62
2023/09/12 13:50:44;;;;;;;;;;;27.80;99.90;;;;;;5053212;28;20293;-62
2023/09/12 13:53:11;;;;;;;;;;;27.80;99.90;;;;;;5053202;28;20011;-62
2023/09/12 13:55:38;;;;;;;;;;;27.80;99.90;;;;;;5034601;28;19947;-62
2023/09/12 13:58:24;;;;;;;;;;;27.70;99.90;;;;;;5053234;28;19978;-62
2023/09/12 14:00:58;;;;;;;;;;;27.80;99.90;;;;;;5053033;28;19974;-62
2023/09/12 14:03:25;;;;;;;;;;;27.90;99.90;;;;;;5050258;28;20340;-62
2023/09/12 14:05:55;;;;;;;;;;;28.00;99.90;;;;;;5053228;28;20086;-62
2023/09/12 14:08:22;;;;;;;;;;;27.90;99.90;;;;;;5052885;28;20020;-62
2023/09/12 14:10:50;;;;;;;;;;;27.90;99.90;;;;;;5048931;28;19974;-62
2023/09/12 14:13:17;;;;;;;;;;;27.80;99.90;;;;;;5053055;28;20358;-62
2023/09/12 14:15:49;;;;;;;;;;;27.80;99.90;;;;;;5053357;28;19925;-62
2023/09/12 14:18:17;;;;;;;;;;;27.80;99.90;;;;;;5047763;28;19925;-62
2023/09/12 14:20:46;;;;;;;;;;;27.90;99.90;;;;;;5051247;28;19979;-61